KLRU/LRU METAR and TAF weather

Enter ICAO airport designator
Station Type Date Time Source
KLRU METAR 2019/11/18 09:35 UTC NOAA

KLRU 180935Z AUTO 31003KT 10SM CLR 04/M05 A3013 RMK AO2 T00351047


Station Type Date Time Source
KLRU Decoded METAR 2019/11/18 09:35 UTC NOAA

Las Cruces, Las Cruces International Airport, NM, United States (KLRU) 32-17-22N 106-55-19W
Nov 18, 2019 - 04:35 AM EST / 2019.11.18 0935 UTC
Wind: from the NW (310 degrees) at 3 MPH (3 KT):0
Visibility: 10 mile(s):0
Sky conditions: clear
Temperature: 38.3 F (3.5 C)
Dew Point: 23.5 F (-4.7 C)
Relative Humidity: 54%
Pressure (altimeter): 30.13 in. Hg (1020 hPa)
ob: KLRU 180935Z AUTO 31003KT 10SM CLR 04/M05 A3013 RMK AO2 T00351047
cycle: 9

Station Type Date Time Source
KLRU TAF 2019/11/18 06:24 UTC NOAA

TAF KLRU 180520Z 1806/1906 VRB04KT P6SM SCT250
FM181800 25007KT P6SM SCT250

Example: see airport list